| time (UTC) | temp F | wind direction | speed knots | gust knots | rain 1hr in | rain 24hr in | rain mn in | humidity % | barometer mb |
| 20260510120048 | 47 | 309 | 4.3 | 0.0 | 0.00 | 0.00 | 0.00 | 64 | 1014.9 |
| 20260510114547 | 43 | 323 | 2.6 | 0.0 | 0.00 | 0.00 | 0.00 | 78 | 1014.9 |
| 20260510113056 | 38 | 291 | 2.6 | 0.0 | 0.00 | 0.00 | 0.00 | 87 | 1014.6 |
| 20260510111603 | 35 | 281 | 1.7 | 0.0 | 0.00 | 0.00 | 0.00 | 87 | 1014.6 |
| 20260510110046 | 34 | 318 | 0.0 | 0.0 | 0.00 | 0.00 | 0.00 | 86 | 1014.4 |
| 20260510104558 | 33 | 318 | 0.0 | 0.0 | 0.00 | 0.00 | 0.00 | 85 | 1014.3 |
| 20260510103042 | 34 | 318 | 0.0 | 0.0 | 0.00 | 0.00 | 0.00 | 84 | 1013.7 |
| 20260510101539 | 34 | 318 | 0.0 | 0.0 | 0.00 | 0.00 | 0.00 | 83 | 1013.4 |
| 20260510100039 | 34 | 318 | 0.0 | 0.0 | 0.00 | 0.00 | 0.00 | 82 | 1013.2 |
| 20260510094539 | 34 | 318 | 0.0 | 0.0 | 0.00 | 0.00 | 0.00 | 82 | 1012.7 |
| 20260510093036 | 35 | 318 | 0.0 | 0.0 | 0.00 | 0.00 | 0.00 | 81 | 1012.4 |
| 20260510091548 | 35 | 318 | 0.0 | 0.0 | 0.00 | 0.00 | 0.00 | 80 | 1012.2 |
| 20260510090030 | 36 | 318 | 0.0 | 0.0 | 0.00 | 0.00 | 0.00 | 79 | 1011.9 |
| 20260510084528 | 37 | 318 | 0.0 | 0.0 | 0.00 | 0.00 | 0.00 | 77 | 1011.6 |
| 20260510083026 | 37 | 318 | 0.0 | 0.0 | 0.00 | 0.00 | 0.00 | 74 | 1011.5 |
| 20260510081534 | 38 | 318 | 0.0 | 0.0 | 0.00 | 0.00 | 0.00 | 73 | 1011.2 |
| 20260510080020 | 39 | 318 | 0.0 | 0.0 | 0.00 | 0.00 | 0.00 | 72 | 1010.9 |
| 20260510074518 | 40 | 318 | 0.9 | 0.0 | 0.00 | 0.00 | 0.00 | 68 | 1010.8 |
| 20260510073022 | 41 | 318 | 0.9 | 0.0 | 0.00 | 0.00 | 0.00 | 66 | 1010.7 |
| 20260510071515 | 42 | 319 | 1.7 | 0.0 | 0.00 | 0.00 | 0.00 | 64 | 1010.5 |
| 20260510070016 | 42 | 317 | 3.5 | 0.0 | 0.00 | 0.00 | 0.00 | 63 | 1010.3 |
| 20260510064534 | 43 | 311 | 4.3 | 0.0 | 0.00 | 0.00 | 0.00 | 62 | 1010.2 |
| 20260510063014 | 43 | 323 | 3.5 | 0.0 | 0.00 | 0.00 | 0.00 | 62 | 1010.2 |
| 20260510061505 | 44 | 355 | 3.5 | 0.0 | 0.00 | 0.00 | 0.00 | 63 | 1010.2 |
| 20260510060000 | 44 | 350 | 4.3 | 0.0 | 0.00 | 0.00 | 0.00 | 62 | 1010.1 |
| 20260510054603 | 45 | 329 | 5.2 | 0.0 | 0.00 | 0.00 | 0.00 | 62 | 1010.1 |
| 20260510053057 | 45 | 350 | 3.5 | 0.0 | 0.00 | 0.00 | 0.00 | 64 | 1009.7 |
| 20260510051605 | 46 | 299 | 1.7 | 0.0 | 0.00 | 0.00 | 0.00 | 65 | 1009.6 |
| 20260510050052 | 46 | 319 | 1.7 | 0.0 | 0.00 | 0.00 | 0.00 | 63 | 1009.2 |
| 20260510044559 | 47 | 320 | 2.6 | 0.0 | 0.00 | 0.00 | 0.00 | 62 | 1008.8 |
| 20260510043049 | 47 | 318 | 1.7 | 0.0 | 0.00 | 0.00 | 0.00 | 62 | 1008.7 |
| 20260510041559 | 48 | 345 | 1.7 | 0.0 | 0.00 | 0.00 | 0.00 | 60 | 1008.1 |
| 20260510040044 | 48 | 350 | 2.6 | 0.0 | 0.00 | 0.00 | 0.11 | 60 | 1008.2 |
| 20260510034546 | 49 | 319 | 3.5 | 0.0 | 0.00 | 0.00 | 0.11 | 59 | 1007.9 |
| 20260510033047 | 49 | 311 | 3.5 | 0.0 | 0.00 | 0.00 | 0.11 | 59 | 1008.0 |
| 20260510031548 | 50 | 291 | 2.6 | 0.0 | 0.00 | 0.00 | 0.11 | 64 | 1007.7 |
| 20260510030052 | 51 | 345 | 2.6 | 0.0 | 0.00 | 0.00 | 0.11 | 61 | 1006.8 |
| 20260510024548 | 52 | 294 | 2.6 | 0.0 | 0.00 | 0.00 | 0.11 | 60 | 1007.0 |
| 20260510023041 | 52 | 319 | 3.5 | 0.0 | 0.00 | 0.00 | 0.11 | 61 | 1006.9 |
| 20260510021539 | 53 | 345 | 3.5 | 0.0 | 0.00 | 0.00 | 0.11 | 63 | 1006.2 |
| 20260510020039 | 53 | 302 | 2.6 | 0.0 | 0.00 | 0.00 | 0.11 | 64 | 1005.8 |
| 20260510014531 | 54 | 323 | 2.6 | 0.0 | 0.00 | 0.00 | 0.11 | 64 | 1005.6 |
| 20260510013029 | 54 | 333 | 4.3 | 0.0 | 0.00 | 0.00 | 0.11 | 66 | 1005.1 |
| 20260510011529 | 54 | 282 | 1.7 | 0.0 | 0.00 | 0.00 | 0.11 | 78 | 1004.9 |
| 20260510010029 | 55 | 229 | 0.9 | 0.0 | 0.00 | 0.00 | 0.11 | 80 | 1004.6 |
| 20260510004530 | 56 | 229 | 0.9 | 0.0 | 0.00 | 0.00 | 0.11 | 79 | 1004.2 |
| 20260510003043 | 56 | 256 | 1.7 | 0.0 | 0.00 | 0.00 | 0.11 | 78 | 1004.0 |
| 20260510001528 | 57 | 312 | 1.7 | 0.0 | 0.00 | 0.00 | 0.11 | 76 | 1003.5 |
| 20260510000030 | 57 | 276 | 0.9 | 0.0 | 0.00 | 0.00 | 0.11 | 75 | 1003.3 |
| 20260509234536 | 58 | 170 | 2.6 | 0.0 | 0.00 | 0.00 | 0.11 | 74 | 1003.0 |
| 20260509233039 | 58 | 190 | 4.3 | 0.0 | 0.00 | 0.00 | 0.11 | 72 | 1003.0 |
| 20260509231529 | 58 | 197 | 3.5 | 0.0 | 0.00 | 0.00 | 0.11 | 73 | 1002.7 |
| 20260509230025 | 58 | 148 | 3.5 | 0.0 | 0.00 | 0.00 | 0.11 | 72 | 1002.5 |
| 20260509224526 | 58 | 207 | 3.5 | 0.0 | 0.00 | 0.00 | 0.11 | 74 | 1002.3 |
| 20260509223025 | 57 | 204 | 5.2 | 0.0 | 0.00 | 0.00 | 0.11 | 75 | 1002.0 |
| 20260509221523 | 56 | 201 | 4.3 | 0.0 | 0.00 | 0.00 | 0.11 | 78 | 1002.0 |
| 20260509220028 | 55 | 147 | 4.3 | 0.0 | 0.00 | 0.00 | 0.11 | 81 | 1002.4 |
| 20260509214521 | 54 | 189 | 4.3 | 0.0 | 0.00 | 0.00 | 0.11 | 82 | 1002.5 |
| 20260509213021 | 54 | 132 | 4.3 | 0.0 | 0.00 | 0.00 | 0.11 | 85 | 1002.5 |
| 20260509211520 | 53 | 168 | 5.2 | 0.0 | 0.00 | 0.00 | 0.11 | 87 | 1002.6 |
| 20260509210024 | 52 | 226 | 5.2 | 0.0 | 0.00 | 0.00 | 0.11 | 88 | 1002.7 |
| 20260509204519 | 51 | 224 | 5.2 | 0.0 | 0.00 | 0.00 | 0.11 | 85 | 1003.0 |
| 20260509203027 | 54 | 225 | 7.8 | 0.0 | 0.00 | 0.00 | 0.10 | 76 | 1002.4 |
| 20260509201518 | 60 | 200 | 11.3 | 0.0 | 0.00 | 0.00 | 0.00 | 69 | 1001.5 |
| 20260509200017 | 59 | 134 | 9.6 | 0.0 | 0.00 | 0.00 | 0.00 | 68 | 1001.7 |
| 20260509194518 | 59 | 208 | 13.0 | 0.0 | 0.00 | 0.00 | 0.00 | 68 | 1001.7 |
| 20260509193017 | 60 | 170 | 12.2 | 0.0 | 0.00 | 0.00 | 0.00 | 66 | 1001.8 |
| 20260509191516 | 61 | 185 | 11.3 | 0.0 | 0.00 | 0.00 | 0.00 | 65 | 1002.0 |
| 20260509190018 | 61 | 168 | 8.7 | 0.0 | 0.00 | 0.00 | 0.00 | 66 | 1001.9 |
| 20260509184526 | 61 | 164 | 10.4 | 0.0 | 0.00 | 0.00 | 0.00 | 66 | 1002.3 |
| 20260509183024 | 60 | 118 | 8.7 | 0.0 | 0.00 | 0.00 | 0.00 | 69 | 1002.5 |
| 20260509181517 | 59 | 207 | 8.7 | 0.0 | 0.00 | 0.00 | 0.00 | 72 | 1003.2 |
| 20260509180018 | 60 | 209 | 9.6 | 0.0 | 0.00 | 0.00 | 0.00 | 70 | 1002.7 |
| 20260509174516 | 62 | 161 | 9.6 | 0.0 | 0.00 | 0.00 | 0.00 | 66 | 1002.3 |
| 20260509173016 | 63 | 129 | 10.4 | 0.0 | 0.00 | 0.00 | 0.00 | 65 | 1002.5 |
| 20260509171520 | 63 | 176 | 9.6 | 0.0 | 0.00 | 0.00 | 0.00 | 65 | 1002.8 |
| 20260509170012 | 64 | 165 | 7.8 | 0.0 | 0.00 | 0.00 | 0.00 | 65 | 1003.3 |
| 20260509164508 | 62 | 143 | 7.8 | 0.0 | 0.00 | 0.00 | 0.00 | 65 | 1003.5 |
| 20260509163011 | 63 | 116 | 7.8 | 0.0 | 0.00 | 0.00 | 0.00 | 64 | 1003.5 |
| 20260509161510 | 62 | 164 | 7.0 | 0.0 | 0.00 | 0.00 | 0.00 | 66 | 1004.4 |
| 20260509160006 | 62 | 183 | 6.1 | 0.0 | 0.00 | 0.00 | 0.00 | 65 | 1004.5 |
| 20260509154505 | 62 | 176 | 5.2 | 0.0 | 0.00 | 0.00 | 0.00 | 63 | 1004.4 |
| 20260509153013 | 63 | 203 | 6.1 | 0.0 | 0.00 | 0.00 | 0.00 | 62 | 1004.3 |
| 20260509151615 | 62 | 155 | 6.1 | 0.0 | 0.00 | 0.00 | 0.00 | 65 | 1004.3 |
| 20260509150111 | 61 | 186 | 7.0 | 0.0 | 0.00 | 0.00 | 0.00 | 68 | 1004.5 |
| 20260509144602 | 61 | 172 | 7.0 | 0.0 | 0.00 | 0.00 | 0.00 | 67 | 1004.5 |
| 20260509143104 | 59 | 183 | 6.1 | 0.0 | 0.00 | 0.00 | 0.00 | 70 | 1004.3 |
| 20260509141554 | 59 | 164 | 6.1 | 0.0 | 0.00 | 0.00 | 0.00 | 71 | 1004.6 |
| 20260509140055 | 56 | 190 | 4.3 | 0.0 | 0.00 | 0.00 | 0.00 | 78 | 1004.7 |
| 20260509134545 | 54 | 186 | 5.2 | 0.0 | 0.00 | 0.00 | 0.00 | 83 | 1005.1 |
| 20260509133047 | 52 | 178 | 6.1 | 0.0 | 0.00 | 0.00 | 0.00 | 86 | 1005.2 |
| 20260509131539 | 52 | 168 | 4.3 | 0.0 | 0.00 | 0.00 | 0.00 | 88 | 1005.3 |
| 20260509130038 | 51 | 174 | 4.3 | 0.0 | 0.00 | 0.00 | 0.00 | 90 | 1005.4 |
| 20260509124545 | 50 | 133 | 4.3 | 0.0 | 0.00 | 0.00 | 0.00 | 91 | 1005.6 |
| 20260509123039 | 50 | 176 | 6.1 | 0.0 | 0.00 | 0.00 | 0.00 | 92 | 1005.6 |
| 20260509121549 | 49 | 147 | 4.3 | 0.0 | 0.00 | 0.00 | 0.00 | 92 | 1005.7 |